createdAt,value
2017-07-08T00:01:28.801Z,61.00
2017-07-08T00:03:56.292Z,61.00
2017-07-08T00:06:23.786Z,60.60
2017-07-08T00:08:51.280Z,60.50
2017-07-08T00:11:18.761Z,60.00
2017-07-08T00:13:47.036Z,59.90
2017-07-08T00:16:14.517Z,59.90
2017-07-08T00:18:42.033Z,60.00
2017-07-08T00:21:09.523Z,60.00
2017-07-08T00:23:37.032Z,59.70
2017-07-08T00:26:04.518Z,59.90
2017-07-08T00:28:32.026Z,60.80
2017-07-08T00:30:59.528Z,61.00
2017-07-08T00:33:27.036Z,61.00
2017-07-08T00:35:54.524Z,60.90
2017-07-08T00:38:22.035Z,61.20
2017-07-08T00:40:49.525Z,61.20
2017-07-08T00:43:17.032Z,61.00
2017-07-08T00:45:44.520Z,60.80
2017-07-08T00:48:12.045Z,61.10
2017-07-08T00:50:39.540Z,61.20
2017-07-08T00:53:07.028Z,62.30
2017-07-08T00:55:34.555Z,61.80
2017-07-08T00:58:02.039Z,61.50
2017-07-08T01:00:29.560Z,61.40
2017-07-08T01:02:57.057Z,61.30
2017-07-08T01:05:24.575Z,61.30
2017-07-08T01:07:52.059Z,61.00
2017-07-08T01:10:19.564Z,61.30
2017-07-08T01:12:47.057Z,61.50
2017-07-08T01:15:14.577Z,61.20
2017-07-08T01:17:42.829Z,61.60
2017-07-08T01:20:11.117Z,62.30
2017-07-08T01:22:38.610Z,61.50
2017-07-08T01:25:06.117Z,61.50
2017-07-08T01:27:33.648Z,61.90
2017-07-08T01:30:01.169Z,62.00
2017-07-08T01:32:29.422Z,61.90
2017-07-08T01:34:56.936Z,61.90
2017-07-08T01:37:24.432Z,61.70
2017-07-08T01:39:51.952Z,61.70
2017-07-08T01:42:19.432Z,61.80
2017-07-08T01:44:46.916Z,62.30
2017-07-08T01:47:14.424Z,62.90
2017-07-08T01:49:41.910Z,63.60
2017-07-08T01:52:09.428Z,63.80
2017-07-08T01:54:36.917Z,64.10
2017-07-08T01:57:05.196Z,64.80
2017-07-08T01:59:32.685Z,64.70
2017-07-08T02:02:00.193Z,64.80
2017-07-08T02:04:27.676Z,64.80
2017-07-08T02:06:55.189Z,64.60
2017-07-08T02:09:22.687Z,64.40
2017-07-08T02:11:50.964Z,64.30
2017-07-08T02:14:18.441Z,64.20
2017-07-08T02:16:45.945Z,64.20
2017-07-08T02:19:13.439Z,63.70
2017-07-08T02:21:40.940Z,63.80
2017-07-08T02:24:08.441Z,63.90
2017-07-08T02:26:35.941Z,64.20
2017-07-08T02:29:03.424Z,64.80
2017-07-08T02:31:30.939Z,65.20
2017-07-08T02:33:58.433Z,65.10
2017-07-08T02:36:26.726Z,66.70
2017-07-08T02:38:54.209Z,66.60
2017-07-08T02:41:21.704Z,67.10
2017-07-08T02:43:49.222Z,67.40
2017-07-08T02:46:16.705Z,67.20
2017-07-08T02:48:44.214Z,67.50
2017-07-08T02:51:11.708Z,67.90
2017-07-08T02:53:39.214Z,67.80
2017-07-08T02:56:06.716Z,67.90
2017-07-08T02:58:34.224Z,67.90
2017-07-08T03:01:01.716Z,67.70
2017-07-08T03:03:30.000Z,67.60
2017-07-08T03:05:57.495Z,67.50
2017-07-08T03:08:25.002Z,67.80
2017-07-08T03:10:52.497Z,67.80
2017-07-08T03:13:20.013Z,67.90
2017-07-08T03:15:47.504Z,67.80
2017-07-08T03:18:15.007Z,67.60
2017-07-08T03:20:42.504Z,67.50
2017-07-08T03:23:10.008Z,67.40
2017-07-08T03:25:37.509Z,67.60
2017-07-08T03:28:05.012Z,67.30
2017-07-08T03:30:32.497Z,67.50
2017-07-08T03:33:00.008Z,67.80
2017-07-08T03:35:27.492Z,67.10
2017-07-08T03:37:54.981Z,66.60
2017-07-08T03:40:22.488Z,66.90
2017-07-08T03:42:49.972Z,67.50
2017-07-08T03:45:17.483Z,67.00
2017-07-08T03:47:44.973Z,66.80
2017-07-08T03:50:12.503Z,67.20
2017-07-08T03:52:39.999Z,66.80
2017-07-08T03:55:07.524Z,66.50
2017-07-08T03:57:35.013Z,66.20
2017-07-08T04:00:02.527Z,66.00
2017-07-08T04:02:30.016Z,66.10
2017-07-08T04:04:57.529Z,66.40
2017-07-08T04:07:25.015Z,67.40
2017-07-08T04:09:52.528Z,67.30
2017-07-08T04:12:20.790Z,68.10
2017-07-08T04:14:48.300Z,68.10
2017-07-08T04:17:15.804Z,68.80
2017-07-08T04:19:43.322Z,68.30
2017-07-08T04:22:10.815Z,68.40
2017-07-08T04:24:38.334Z,68.20
2017-07-08T04:27:05.833Z,68.30
2017-07-08T04:29:34.106Z,68.70
2017-07-08T04:32:02.388Z,69.10
2017-07-08T04:34:29.880Z,69.00
2017-07-08T04:36:57.397Z,69.40
2017-07-08T04:39:24.888Z,69.10
2017-07-08T04:41:52.408Z,69.90
2017-07-08T04:44:19.907Z,69.50
2017-07-08T04:46:47.442Z,69.70
2017-07-08T04:49:14.937Z,69.60
2017-07-08T04:51:42.454Z,69.90
2017-07-08T04:54:09.957Z,69.70
2017-07-08T04:56:37.479Z,69.70
2017-07-08T04:59:05.806Z,69.80
2017-07-08T05:01:33.316Z,70.50
2017-07-08T05:04:00.815Z,69.80
2017-07-08T05:06:28.323Z,69.80
2017-07-08T05:08:55.838Z,70.50
2017-07-08T05:11:23.345Z,70.60
2017-07-08T05:13:50.849Z,70.50
2017-07-08T05:16:18.361Z,71.10
2017-07-08T05:18:45.865Z,71.60
2017-07-08T05:21:13.378Z,71.80
2017-07-08T05:23:40.876Z,71.80
2017-07-08T05:26:09.169Z,71.60
2017-07-08T05:28:36.656Z,71.60
2017-07-08T05:31:04.160Z,71.40
2017-07-08T05:33:31.672Z,71.10
2017-07-08T05:35:59.939Z,70.60
2017-07-08T05:38:27.456Z,70.60
2017-07-08T05:40:54.941Z,70.60
2017-07-08T05:43:22.481Z,70.30
2017-07-08T05:45:49.969Z,70.10
2017-07-08T05:48:17.491Z,69.70
2017-07-08T05:50:44.980Z,69.60
2017-07-08T05:53:13.271Z,69.10
2017-07-08T05:55:40.783Z,69.10
2017-07-08T05:58:08.316Z,68.60
2017-07-08T06:00:35.826Z,68.50
2017-07-08T06:03:03.357Z,68.20
2017-07-08T06:05:30.869Z,68.30
2017-07-08T06:07:59.166Z,68.50
2017-07-08T06:10:26.673Z,68.50
2017-07-08T06:12:54.189Z,67.80
2017-07-08T06:15:21.845Z,67.60
2017-07-08T06:17:50.134Z,65.90
2017-07-08T06:20:17.632Z,65.90
2017-07-08T06:22:46.793Z,64.90
2017-07-08T06:25:14.293Z,64.80
2017-07-08T06:27:41.841Z,64.60
2017-07-08T06:30:09.367Z,64.20
2017-07-08T06:32:36.867Z,62.80
2017-07-08T06:35:04.399Z,62.80
2017-07-08T06:37:31.897Z,62.80
2017-07-08T06:39:59.405Z,61.50
2017-07-08T06:42:26.896Z,61.80
2017-07-08T06:44:54.435Z,60.80
2017-07-08T06:47:21.936Z,59.50
2017-07-08T06:49:49.464Z,59.40
2017-07-08T06:52:17.036Z,58.90
2017-07-08T06:54:45.344Z,58.20
2017-07-08T06:57:12.893Z,58.20
2017-07-08T06:59:40.462Z,58.20
2017-07-08T07:02:07.955Z,57.10
2017-07-08T07:04:35.464Z,57.20
2017-07-08T07:07:02.958Z,57.60
2017-07-08T07:09:30.484Z,57.50
2017-07-08T07:11:57.975Z,56.30
2017-07-08T07:14:25.518Z,56.90
2017-07-08T07:16:53.018Z,56.40
2017-07-08T07:19:20.545Z,56.40
2017-07-08T07:21:48.042Z,56.40
2017-07-08T07:24:15.574Z,56.10
2017-07-08T07:26:43.075Z,56.10
2017-07-08T07:29:10.574Z,54.80
2017-07-08T07:31:38.126Z,55.10
2017-07-08T07:34:05.640Z,53.60
2017-07-08T07:36:33.159Z,53.30
2017-07-08T07:39:00.661Z,53.30
2017-07-08T07:41:28.168Z,53.80
2017-07-08T07:43:55.670Z,53.10
2017-07-08T07:46:23.190Z,52.70
2017-07-08T07:48:51.486Z,53.00
2017-07-08T07:51:19.042Z,53.00
2017-07-08T07:53:46.536Z,52.20
2017-07-08T07:56:14.076Z,52.70
2017-07-08T07:58:41.572Z,52.20
2017-07-08T08:01:09.113Z,52.20
2017-07-08T08:03:36.614Z,51.60
2017-07-08T08:06:04.138Z,51.50
2017-07-08T08:08:31.674Z,51.90
2017-07-08T08:10:59.189Z,52.00
2017-07-08T08:13:26.675Z,50.90
2017-07-08T08:15:54.193Z,50.90
2017-07-08T08:18:21.686Z,50.90
2017-07-08T08:20:49.217Z,50.50
2017-07-08T08:23:17.495Z,50.40
2017-07-08T08:25:45.016Z,50.40
2017-07-08T08:28:13.317Z,50.20
2017-07-08T08:30:40.885Z,49.90
2017-07-08T08:33:08.393Z,47.90
2017-07-08T08:35:35.888Z,48.60
2017-07-08T08:38:03.399Z,47.80
2017-07-08T08:40:30.918Z,49.10
2017-07-08T08:42:58.435Z,47.40
2017-07-08T08:45:25.944Z,46.80
2017-07-08T08:47:53.471Z,45.00
2017-07-08T08:50:20.961Z,44.00
2017-07-08T08:52:48.482Z,42.10
2017-07-08T08:55:15.970Z,40.80
2017-07-08T08:57:43.560Z,39.90
2017-07-08T09:00:11.018Z,38.50
2017-07-08T09:02:38.542Z,36.40
2017-07-08T09:05:06.044Z,35.10
2017-07-08T09:07:33.564Z,32.30
2017-07-08T09:10:01.496Z,30.70
2017-07-08T09:12:29.090Z,30.70
2017-07-08T09:14:56.599Z,30.20
2017-07-08T09:17:24.897Z,27.40
2017-07-08T09:19:52.393Z,27.30
2017-07-08T09:22:21.458Z,25.50
2017-07-08T09:24:48.985Z,25.80
2017-07-08T09:27:16.536Z,25.30
2017-07-08T09:29:44.047Z,25.40
2017-07-08T09:32:11.560Z,24.50
2017-07-08T09:34:39.933Z,23.50
2017-07-08T09:37:07.463Z,23.50
2017-07-08T09:39:34.976Z,23.40
2017-07-08T09:42:02.517Z,23.10
2017-07-08T09:44:30.037Z,23.50
2017-07-08T09:46:57.575Z,23.30
2017-07-08T09:49:25.100Z,22.80
2017-07-08T09:51:52.592Z,23.40
2017-07-08T09:54:20.100Z,24.30
2017-07-08T09:56:47.626Z,23.60
2017-07-08T09:59:15.164Z,22.90
2017-07-08T10:01:42.781Z,22.10
2017-07-08T10:04:10.310Z,20.50
2017-07-08T10:06:37.848Z,20.90
2017-07-08T10:09:05.366Z,20.60
2017-07-08T10:11:32.852Z,20.70
2017-07-08T10:14:00.355Z,19.90
2017-07-08T10:16:27.848Z,19.80
2017-07-08T10:18:55.365Z,20.80
2017-07-08T10:21:22.925Z,21.00
2017-07-08T10:23:51.205Z,21.50
2017-07-08T10:26:18.691Z,21.30
2017-07-08T10:28:46.213Z,21.80
2017-07-08T10:31:13.717Z,22.30
2017-07-08T10:33:41.213Z,22.80
2017-07-08T10:36:08.721Z,22.90
2017-07-08T10:38:36.233Z,21.80
2017-07-08T10:41:03.752Z,21.80
2017-07-08T10:43:31.238Z,22.00
2017-07-08T10:45:58.736Z,22.70
2017-07-08T10:48:26.243Z,22.80
2017-07-08T10:50:54.517Z,23.80
2017-07-08T10:53:22.005Z,23.80
2017-07-08T10:55:49.512Z,23.20
2017-07-08T10:58:16.992Z,23.20
2017-07-08T11:00:44.503Z,22.40
2017-07-08T11:03:12.000Z,22.30
2017-07-08T11:05:39.653Z,22.00
2017-07-08T11:08:07.908Z,21.10
2017-07-08T11:10:35.429Z,21.60
2017-07-08T11:13:02.920Z,20.70
2017-07-08T11:15:30.433Z,20.70
2017-07-08T11:17:57.921Z,21.20
2017-07-08T11:20:25.481Z,22.10
2017-07-08T11:22:52.965Z,23.20
2017-07-08T11:25:21.245Z,24.10
2017-07-08T11:27:48.737Z,24.10
2017-07-08T11:30:16.266Z,24.50
2017-07-08T11:32:43.776Z,25.50
2017-07-08T11:35:11.279Z,26.10
2017-07-08T11:37:38.805Z,26.50
2017-07-08T11:40:06.298Z,27.10
2017-07-08T11:42:33.813Z,27.50
2017-07-08T11:45:01.422Z,27.90
2017-07-08T11:47:28.899Z,28.20
2017-07-08T11:49:56.397Z,28.60
2017-07-08T11:52:24.037Z,28.50
2017-07-08T11:54:51.525Z,29.10
2017-07-08T11:57:19.042Z,29.80
2017-07-08T11:59:46.540Z,30.10
2017-07-08T12:02:15.919Z,29.90
2017-07-08T12:04:43.413Z,29.70
2017-07-08T12:07:10.924Z,30.50
2017-07-08T12:09:38.428Z,30.70
2017-07-08T12:12:05.950Z,30.70
2017-07-08T12:14:33.465Z,31.00
2017-07-08T12:17:00.988Z,30.40
2017-07-08T12:19:28.488Z,30.60
2017-07-08T12:21:56.013Z,29.70
2017-07-08T12:24:23.529Z,30.30
2017-07-08T12:26:51.035Z,30.60
2017-07-08T12:29:20.242Z,31.80
2017-07-08T12:31:47.779Z,30.90
2017-07-08T12:34:15.266Z,31.10
2017-07-08T12:36:42.789Z,30.30
2017-07-08T12:39:10.321Z,30.40
2017-07-08T12:41:37.816Z,30.70
2017-07-08T12:44:05.327Z,31.20
2017-07-08T12:46:32.851Z,31.20
2017-07-08T12:49:00.363Z,30.90
2017-07-08T12:51:28.634Z,30.90
2017-07-08T12:53:56.173Z,30.80
2017-07-08T12:56:23.666Z,31.40
2017-07-08T12:58:51.181Z,31.40
2017-07-08T13:01:18.680Z,32.10
2017-07-08T13:03:46.218Z,32.30
2017-07-08T13:06:13.740Z,31.40
2017-07-08T13:08:41.258Z,32.40
2017-07-08T13:11:08.792Z,31.40
2017-07-08T13:13:36.330Z,32.00
2017-07-08T13:16:03.848Z,32.70
2017-07-08T13:18:32.137Z,31.90
2017-07-08T13:20:59.632Z,31.80
2017-07-08T13:23:27.174Z,32.20
2017-07-08T13:25:54.861Z,32.30
2017-07-08T13:28:23.248Z,32.60
2017-07-08T13:30:50.784Z,32.50
2017-07-08T13:33:18.323Z,31.60
2017-07-08T13:35:45.814Z,31.30
2017-07-08T13:38:13.346Z,31.70
2017-07-08T13:40:40.888Z,30.90
2017-07-08T13:43:08.445Z,30.10
2017-07-08T13:45:35.925Z,30.50
2017-07-08T13:48:03.431Z,30.90
2017-07-08T13:50:30.975Z,32.20
2017-07-08T13:52:58.504Z,33.10
2017-07-08T13:55:26.017Z,33.30
2017-07-08T13:57:53.533Z,33.90
2017-07-08T14:00:21.807Z,34.30
2017-07-08T14:02:49.308Z,34.20
2017-07-08T14:05:16.933Z,34.40
2017-07-08T14:07:44.567Z,34.50
2017-07-08T14:10:12.238Z,34.20
2017-07-08T14:12:39.810Z,34.30
2017-07-08T14:15:08.161Z,34.70
2017-07-08T14:17:35.655Z,34.60
2017-07-08T14:20:03.250Z,35.00
2017-07-08T14:22:30.992Z,35.10
2017-07-08T14:24:58.526Z,35.30
2017-07-08T14:27:26.236Z,35.00
2017-07-08T14:29:53.924Z,35.20
2017-07-08T14:32:22.348Z,35.10
2017-07-08T14:34:51.241Z,35.10
2017-07-08T14:37:18.736Z,35.50
2017-07-08T14:39:46.401Z,36.10
2017-07-08T14:42:13.922Z,36.30
2017-07-08T14:44:42.358Z,36.50
2017-07-08T14:47:10.079Z,36.50
2017-07-08T14:49:37.729Z,37.00
2017-07-08T14:52:05.281Z,37.30
2017-07-08T14:54:32.810Z,36.70
2017-07-08T14:57:00.406Z,37.10
2017-07-08T14:59:31.049Z,36.30
2017-07-08T15:01:59.200Z,36.20
2017-07-08T15:04:26.708Z,36.40
2017-07-08T15:06:54.587Z,36.80
2017-07-08T15:09:22.109Z,37.00
2017-07-08T15:11:49.637Z,36.40
2017-07-08T15:14:17.185Z,35.50
2017-07-08T15:16:45.007Z,35.80
2017-07-08T15:19:12.685Z,36.60
2017-07-08T15:21:40.204Z,36.50
2017-07-08T15:24:07.697Z,36.80
2017-07-08T15:26:35.217Z,37.50
2017-07-08T15:29:02.811Z,37.90
2017-07-08T15:31:31.136Z,37.70
2017-07-08T15:33:59.412Z,37.80
2017-07-08T15:36:26.947Z,37.70
2017-07-08T15:38:55.466Z,37.30
2017-07-08T15:41:23.000Z,37.30
2017-07-08T15:43:50.499Z,37.60
2017-07-08T15:46:17.992Z,37.50
2017-07-08T15:48:45.505Z,37.20
2017-07-08T15:51:13.117Z,37.50
2017-07-08T15:53:40.639Z,36.90
2017-07-08T15:56:09.085Z,37.80
2017-07-08T15:58:36.610Z,37.60
2017-07-08T16:01:04.762Z,37.70
2017-07-08T16:03:32.265Z,38.00
2017-07-08T16:06:00.090Z,37.30
2017-07-08T16:08:27.604Z,37.50
2017-07-08T16:10:55.097Z,37.70
2017-07-08T16:13:22.654Z,38.30
2017-07-08T16:15:50.453Z,37.50
2017-07-08T16:18:19.101Z,37.50
2017-07-08T16:20:46.705Z,37.70
2017-07-08T16:23:14.215Z,37.70
2017-07-08T16:25:42.045Z,37.70
2017-07-08T16:28:09.572Z,37.70
2017-07-08T16:30:37.089Z,37.60
2017-07-08T16:33:05.390Z,37.90
2017-07-08T16:35:32.933Z,37.90
2017-07-08T16:38:01.513Z,37.90
2017-07-08T16:40:29.086Z,37.70
2017-07-08T16:42:56.654Z,37.60
2017-07-08T16:45:24.168Z,37.90
2017-07-08T16:47:51.668Z,37.40
2017-07-08T16:50:19.194Z,37.10
2017-07-08T16:52:46.727Z,37.50
2017-07-08T16:55:18.671Z,37.10
2017-07-08T16:57:46.172Z,37.30
2017-07-08T17:00:15.134Z,37.20
2017-07-08T17:02:42.687Z,37.30
2017-07-08T17:05:14.440Z,36.80
2017-07-08T17:07:42.042Z,37.30
2017-07-08T17:10:09.921Z,37.60
2017-07-08T17:12:37.491Z,37.10
2017-07-08T17:15:05.142Z,37.30
2017-07-08T17:17:32.697Z,37.60
2017-07-08T17:20:00.237Z,37.40
2017-07-08T17:22:30.589Z,37.30
2017-07-08T17:24:58.146Z,37.00
2017-07-08T17:27:26.015Z,37.30
2017-07-08T17:29:53.523Z,37.50
2017-07-08T17:32:21.033Z,37.10
2017-07-08T17:34:48.544Z,37.20
2017-07-08T17:37:16.071Z,37.00
2017-07-08T17:39:43.577Z,37.00
2017-07-08T17:42:11.085Z,37.30
2017-07-08T17:44:38.601Z,37.50
2017-07-08T17:47:06.101Z,37.40
2017-07-08T17:49:33.708Z,37.60
2017-07-08T17:52:01.223Z,37.60
2017-07-08T17:54:28.720Z,37.60
2017-07-08T17:56:56.447Z,37.60
2017-07-08T17:59:23.961Z,37.90
2017-07-08T18:01:51.719Z,37.60
2017-07-08T18:04:19.232Z,37.50
2017-07-08T18:06:46.747Z,37.80
2017-07-08T18:09:15.065Z,38.30
2017-07-08T18:11:42.610Z,38.60
2017-07-08T18:14:10.108Z,38.90
2017-07-08T18:16:37.625Z,39.70
2017-07-08T18:19:05.132Z,39.20
2017-07-08T18:21:32.645Z,39.40
2017-07-08T18:24:00.176Z,39.90
2017-07-08T18:26:28.449Z,39.90
2017-07-08T18:28:57.394Z,39.80
2017-07-08T18:31:24.914Z,39.50
2017-07-08T18:33:52.402Z,39.50
2017-07-08T18:36:19.946Z,39.50
2017-07-08T18:38:47.469Z,39.70
2017-07-08T18:41:14.988Z,40.00
2017-07-08T18:43:42.480Z,39.90
2017-07-08T18:46:10.166Z,39.90
2017-07-08T18:48:37.677Z,40.10
2017-07-08T18:51:05.281Z,40.30
2017-07-08T18:53:32.932Z,40.30
2017-07-08T18:56:00.475Z,40.60
2017-07-08T18:58:28.036Z,40.80
2017-07-08T19:00:55.609Z,40.90
2017-07-08T19:03:23.126Z,40.50
2017-07-08T19:05:50.633Z,40.90
2017-07-08T19:08:18.195Z,40.80
2017-07-08T19:10:45.841Z,40.80
2017-07-08T19:13:14.153Z,41.30
2017-07-08T19:15:41.758Z,41.20
2017-07-08T19:18:09.318Z,41.00
2017-07-08T19:20:36.863Z,41.50
2017-07-08T19:23:04.416Z,41.50
2017-07-08T19:25:31.931Z,41.70
2017-07-08T19:27:59.531Z,42.20
2017-07-08T19:30:27.066Z,42.10
2017-07-08T19:32:54.604Z,42.60
2017-07-08T19:35:22.131Z,42.90
2017-07-08T19:37:49.681Z,43.30
2017-07-08T19:40:18.005Z,43.00
2017-07-08T19:42:45.565Z,43.80
2017-07-08T19:45:13.217Z,43.20
2017-07-08T19:47:40.773Z,42.90
2017-07-08T19:50:08.320Z,42.90
2017-07-08T19:52:35.863Z,43.30
2017-07-08T19:55:03.436Z,43.90
2017-07-08T19:57:31.072Z,44.30
2017-07-08T19:59:58.613Z,44.80
2017-07-08T20:02:26.251Z,45.50
2017-07-08T20:04:53.785Z,46.00
2017-07-08T20:07:21.310Z,46.30
2017-07-08T20:09:50.306Z,46.30
2017-07-08T20:12:17.976Z,46.40
2017-07-08T20:14:45.519Z,46.50
2017-07-08T20:17:13.063Z,46.50
2017-07-08T20:19:40.585Z,46.80
2017-07-08T20:22:08.109Z,46.60
2017-07-08T20:24:35.657Z,46.80
2017-07-08T20:27:03.195Z,47.00
2017-07-08T20:29:30.738Z,47.30
2017-07-08T20:31:58.234Z,47.60
2017-07-08T20:34:25.752Z,47.80
2017-07-08T20:36:53.253Z,48.00
2017-07-08T20:39:21.568Z,48.50
2017-07-08T20:41:49.147Z,48.40
2017-07-08T20:44:17.470Z,48.70
2017-07-08T20:46:45.404Z,48.90
2017-07-08T20:49:12.949Z,48.90
2017-07-08T20:51:40.484Z,48.90
2017-07-08T20:54:08.066Z,49.40
2017-07-08T20:56:35.627Z,48.90
2017-07-08T20:59:03.174Z,48.70
2017-07-08T21:01:30.733Z,48.70
2017-07-08T21:03:59.013Z,49.10
2017-07-08T21:06:26.555Z,49.00
2017-07-08T21:08:54.089Z,49.70
2017-07-08T21:11:22.707Z,49.60
2017-07-08T21:13:50.246Z,49.60
2017-07-08T21:16:17.804Z,49.70
2017-07-08T21:18:45.324Z,49.80
2017-07-08T21:21:12.985Z,50.20
2017-07-08T21:23:40.518Z,50.40
2017-07-08T21:26:08.116Z,50.70
2017-07-08T21:28:35.670Z,50.90
2017-07-08T21:31:03.757Z,50.90
2017-07-08T21:33:31.348Z,50.90
2017-07-08T21:35:59.670Z,51.00
2017-07-08T21:38:27.189Z,50.90
2017-07-08T21:40:54.748Z,50.90
2017-07-08T21:43:22.444Z,51.10
2017-07-08T21:45:50.006Z,51.50
2017-07-08T21:48:17.565Z,51.20
2017-07-08T21:50:45.137Z,51.50
2017-07-08T21:53:12.742Z,51.30
2017-07-08T21:55:40.367Z,51.50
2017-07-08T21:58:08.881Z,51.90
2017-07-08T22:00:36.597Z,51.90
2017-07-08T22:03:04.931Z,52.50
2017-07-08T22:05:32.473Z,52.40
2017-07-08T22:08:00.045Z,52.40
2017-07-08T22:10:27.610Z,52.20
2017-07-08T22:12:55.341Z,52.40
2017-07-08T22:15:22.961Z,52.50
2017-07-08T22:17:50.645Z,52.60
2017-07-08T22:20:18.234Z,52.60
2017-07-08T22:22:45.859Z,53.00
2017-07-08T22:25:15.293Z,53.20
2017-07-08T22:27:42.818Z,53.90
2017-07-08T22:30:10.496Z,54.10
2017-07-08T22:32:38.052Z,53.80
2017-07-08T22:35:05.569Z,53.60
2017-07-08T22:37:33.284Z,54.10
2017-07-08T22:40:01.325Z,54.20
2017-07-08T22:42:28.941Z,54.20
2017-07-08T22:44:56.565Z,54.40
2017-07-08T22:47:24.125Z,54.60
2017-07-08T22:49:51.998Z,54.70
2017-07-08T22:52:19.535Z,54.30
2017-07-08T22:54:47.260Z,54.20
2017-07-08T22:57:15.831Z,54.60
2017-07-08T22:59:43.457Z,54.50
2017-07-08T23:02:11.173Z,54.60
2017-07-08T23:04:38.907Z,54.70
2017-07-08T23:07:06.725Z,54.90
2017-07-08T23:09:35.025Z,55.10
2017-07-08T23:12:02.545Z,55.00
2017-07-08T23:14:30.204Z,54.80
2017-07-08T23:16:57.809Z,55.20
2017-07-08T23:19:28.244Z,55.20
2017-07-08T23:21:55.821Z,55.20
2017-07-08T23:24:28.263Z,55.10
2017-07-08T23:26:55.815Z,55.00
2017-07-08T23:32:00.109Z,55.40
2017-07-08T23:34:27.689Z,55.50
2017-07-08T23:36:55.797Z,55.70
2017-07-08T23:39:23.382Z,55.50
2017-07-08T23:41:51.029Z,55.10
2017-07-08T23:44:18.678Z,54.90
2017-07-08T23:46:46.224Z,54.90
2017-07-08T23:49:15.317Z,54.80
2017-07-08T23:51:45.045Z,55.00
2017-07-08T23:54:16.616Z,55.60
2017-07-08T23:56:44.657Z,55.50
2017-07-08T23:59:12.259Z,55.50
